Impacts TAF Board INFO
FOR SITUATIONAL AWARENESS. NOT TO BE USED FOR FLIGHT PLANNING PURPOSES.
IDs:

KMDW - Chicago/Midway Intl, IL, US

Issued at 2100 UTC 22 Aug 2017
Updated at 2228 UTC 22 Aug 2017
Potential Impact None Slight Moderate High
Time2153Z 22/23Z 23/00Z 23/01Z 23/02Z 23/03Z 23/04Z 23/05Z 23/06Z 23/07Z 23/08Z 23/09Z 23/10Z 23/11Z>>
Type OBS PRVL PRVL PRVL PRVL PRVL PRVL PRVL PRVL PRVL PRVL PRVL PRVL PRVL
VIS 10 >6 >6 >6 >6 >6 >6 >6 >6 >6 >6 >6 >6 >6
CIG -- -- -- -- -- -- -- -- -- -- -- -- -- --
Cover SCT SCT SCT SKC SKC SKC SKC SKC SKC SKC SKC SKC SKC SKC
FltCat VFR VFR VFR VFR VFR VFR VFR VFR VFR VFR VFR VFR VFR VFR
WX -- -- -- -- -- -- -- -- -- -- -- -- -- --
WDir 320 310 310 300 300 300 300 300 300 300 300 300 300 300
WSpd 14 14 14 7 7 7 7 7 7 7 7 7 7 7
WGst 28 22 22 -- -- -- -- -- -- -- -- -- -- --

Raw TAF
KMDW 222100Z 2221/2318 31014G22KT P6SM SCT050
  FM230100 30007KT P6SM SKC
  FM231600 33010KT P6SM FEW030


Raw METAR
KMDW 222153Z 32014G28KT 10SM SCT060 26/12 A2991 RMK AO2 PK WND 32028/2145 SLP118 T02560122
KMDW 222053Z 29014G21KT 10SM BKN055 27/13 A2990 RMK AO2 SLP116 T02720128 53001
KMDW 221953Z 29017G23KT 10SM FEW038 BKN055 27/13 A2989 RMK AO2 SLP113 T02720128

METAR Board
Radar Display
Forecast Discussion

FOR SITUATIONAL AWARENESS. NOT TO BE USED FOR FLIGHT PLANNING PURPOSES.